sensor_id;sensor_type;location;lat;lon;timestamp;pressure;altitude;pressure_sealevel;temperature;humidity
62849;BME280;48941;49.516;8.286;2023-03-25T00:00:22;99662.25;;;10.76;69.37
62849;BME280;48941;49.516;8.286;2023-03-25T00:02:51;99660.84;;;10.72;69.24
62849;BME280;48941;49.516;8.286;2023-03-25T00:05:20;99663.50;;;10.72;68.51
62849;BME280;48941;49.516;8.286;2023-03-25T00:07:49;99663.66;;;10.71;68.86
62849;BME280;48941;49.516;8.286;2023-03-25T00:10:18;99662.94;;;10.69;68.81
62849;BME280;48941;49.516;8.286;2023-03-25T00:12:47;99651.03;;;10.63;68.36
62849;BME280;48941;49.516;8.286;2023-03-25T00:15:17;99651.16;;;10.62;68.20
62849;BME280;48941;49.516;8.286;2023-03-25T00:17:45;99661.13;;;10.60;68.90
62849;BME280;48941;49.516;8.286;2023-03-25T00:20:12;99663.91;;;10.58;68.50
62849;BME280;48941;49.516;8.286;2023-03-25T00:22:40;99652.56;;;10.56;68.27
62849;BME280;48941;49.516;8.286;2023-03-25T00:25:11;99657.50;;;10.61;67.68
62849;BME280;48941;49.516;8.286;2023-03-25T00:27:43;99656.09;;;10.56;67.95
62849;BME280;48941;49.516;8.286;2023-03-25T00:30:13;99645.56;;;10.55;67.45
62849;BME280;48941;49.516;8.286;2023-03-25T00:32:43;99653.81;;;10.52;67.71
62849;BME280;48941;49.516;8.286;2023-03-25T00:35:16;99662.69;;;10.52;67.75
62849;BME280;48941;49.516;8.286;2023-03-25T00:37:45;99660.16;;;10.51;68.30
62849;BME280;48941;49.516;8.286;2023-03-25T00:40:13;99666.44;;;10.50;68.48
62849;BME280;48941;49.516;8.286;2023-03-25T00:42:41;99655.78;;;10.50;68.87
62849;BME280;48941;49.516;8.286;2023-03-25T00:45:11;99661.41;;;10.47;69.74
62849;BME280;48941;49.516;8.286;2023-03-25T00:47:38;99661.25;;;10.48;70.12
62849;BME280;48941;49.516;8.286;2023-03-25T00:50:09;99657.75;;;10.38;71.12
62849;BME280;48941;49.516;8.286;2023-03-25T00:52:37;99658.31;;;10.32;71.75
62849;BME280;48941;49.516;8.286;2023-03-25T00:55:05;99654.69;;;10.33;71.47
62849;BME280;48941;49.516;8.286;2023-03-25T00:57:33;99647.66;;;10.32;72.16
62849;BME280;48941;49.516;8.286;2023-03-25T01:00:03;99651.41;;;10.29;72.43
62849;BME280;48941;49.516;8.286;2023-03-25T01:02:33;99646.09;;;10.29;72.68
62849;BME280;48941;49.516;8.286;2023-03-25T01:05:01;99643.56;;;10.28;73.03
62849;BME280;48941;49.516;8.286;2023-03-25T01:07:31;99655.47;;;10.24;73.49
62849;BME280;48941;49.516;8.286;2023-03-25T01:10:00;99646.66;;;10.23;74.28
62849;BME280;48941;49.516;8.286;2023-03-25T01:12:27;99644.97;;;10.22;74.77
62849;BME280;48941;49.516;8.286;2023-03-25T01:14:55;99638.81;;;10.22;76.21
62849;BME280;48941;49.516;8.286;2023-03-25T01:17:23;99640.50;;;10.23;76.64
62849;BME280;48941;49.516;8.286;2023-03-25T01:19:51;99634.75;;;10.17;77.53
62849;BME280;48941;49.516;8.286;2023-03-25T01:22:18;99635.72;;;10.16;79.48
62849;BME280;48941;49.516;8.286;2023-03-25T01:24:48;99649.84;;;10.07;82.13
62849;BME280;48941;49.516;8.286;2023-03-25T01:27:15;99656.28;;;9.95;84.56
62849;BME280;48941;49.516;8.286;2023-03-25T01:29:43;99662.81;;;9.81;84.62
62849;BME280;48941;49.516;8.286;2023-03-25T01:32:11;99679.59;;;9.72;86.07
62849;BME280;48941;49.516;8.286;2023-03-25T01:34:39;99697.81;;;9.46;86.79
62849;BME280;48941;49.516;8.286;2023-03-25T01:37:08;99687.97;;;9.36;88.89
62849;BME280;48941;49.516;8.286;2023-03-25T01:39:36;99713.22;;;9.21;88.37
62849;BME280;48941;49.516;8.286;2023-03-25T01:42:05;99691.38;;;8.96;87.69
62849;BME280;48941;49.516;8.286;2023-03-25T01:45:12;99684.00;;;8.79;88.54
62849;BME280;48941;49.516;8.286;2023-03-25T01:47:41;99664.69;;;8.56;89.08
62849;BME280;48941;49.516;8.286;2023-03-25T01:50:10;99648.66;;;8.46;89.75
62849;BME280;48941;49.516;8.286;2023-03-25T01:52:43;99637.94;;;8.36;88.95
62849;BME280;48941;49.516;8.286;2023-03-25T01:55:12;99635.22;;;8.27;89.99
62849;BME280;48941;49.516;8.286;2023-03-25T01:57:42;99619.69;;;8.22;91.48
62849;BME280;48941;49.516;8.286;2023-03-25T02:00:14;99628.03;;;8.17;91.21
62849;BME280;48941;49.516;8.286;2023-03-25T02:02:42;99604.78;;;8.10;91.49
62849;BME280;48941;49.516;8.286;2023-03-25T02:05:17;99608.53;;;8.07;91.76
62849;BME280;48941;49.516;8.286;2023-03-25T02:07:47;99610.34;;;8.07;91.96
62849;BME280;48941;49.516;8.286;2023-03-25T02:10:16;99604.56;;;8.02;91.49
62849;BME280;48941;49.516;8.286;2023-03-25T02:12:46;99606.63;;;7.98;91.75
62849;BME280;48941;49.516;8.286;2023-03-25T02:15:16;99615.69;;;7.95;91.73
62849;BME280;48941;49.516;8.286;2023-03-25T02:21:30;99616.06;;;7.91;91.92
62849;BME280;48941;49.516;8.286;2023-03-25T02:24:37;99618.13;;;7.87;91.60
62849;BME280;48941;49.516;8.286;2023-03-25T02:27:16;99611.09;;;7.86;91.50
62849;BME280;48941;49.516;8.286;2023-03-25T02:30:08;99614.88;;;7.84;90.62
62849;BME280;48941;49.516;8.286;2023-03-25T02:33:03;99618.94;;;7.88;88.95
62849;BME280;48941;49.516;8.286;2023-03-25T02:35:48;99616.28;;;7.88;87.88
62849;BME280;48941;49.516;8.286;2023-03-25T02:38:29;99625.19;;;7.87;88.16
62849;BME280;48941;49.516;8.286;2023-03-25T02:41:04;99624.72;;;7.93;88.65
62849;BME280;48941;49.516;8.286;2023-03-25T02:43:39;99628.94;;;7.95;89.01
62849;BME280;48941;49.516;8.286;2023-03-25T02:46:12;99623.25;;;8.00;88.41
62849;BME280;48941;49.516;8.286;2023-03-25T02:48:49;99628.16;;;8.05;87.98
62849;BME280;48941;49.516;8.286;2023-03-25T02:51:23;99647.00;;;8.02;86.72
62849;BME280;48941;49.516;8.286;2023-03-25T02:53:56;99629.03;;;8.05;87.01
62849;BME280;48941;49.516;8.286;2023-03-25T02:56:25;99640.44;;;8.17;87.19
62849;BME280;48941;49.516;8.286;2023-03-25T02:58:55;99642.00;;;8.20;86.50
62849;BME280;48941;49.516;8.286;2023-03-25T03:01:24;99642.59;;;8.23;86.25
62849;BME280;48941;49.516;8.286;2023-03-25T03:03:52;99647.03;;;8.23;86.13
62849;BME280;48941;49.516;8.286;2023-03-25T03:06:21;99645.97;;;8.25;86.81
62849;BME280;48941;49.516;8.286;2023-03-25T03:09:03;99642.94;;;8.30;86.97
62849;BME280;48941;49.516;8.286;2023-03-25T03:11:39;99637.22;;;8.34;86.87
62849;BME280;48941;49.516;8.286;2023-03-25T03:14:25;99641.31;;;8.38;86.65
62849;BME280;48941;49.516;8.286;2023-03-25T03:17:02;99657.09;;;8.40;87.01
62849;BME280;48941;49.516;8.286;2023-03-25T03:19:37;99643.13;;;8.49;84.87
62849;BME280;48941;49.516;8.286;2023-03-25T03:22:15;99636.81;;;8.50;85.61
62849;BME280;48941;49.516;8.286;2023-03-25T03:24:50;99643.34;;;8.46;84.91
62849;BME280;48941;49.516;8.286;2023-03-25T03:27:27;99650.25;;;8.49;84.73
62849;BME280;48941;49.516;8.286;2023-03-25T03:30:04;99639.25;;;8.53;83.21
62849;BME280;48941;49.516;8.286;2023-03-25T03:32:38;99645.66;;;8.51;84.29
62849;BME280;48941;49.516;8.286;2023-03-25T03:35:13;99643.84;;;8.51;83.75
62849;BME280;48941;49.516;8.286;2023-03-25T03:37:46;99644.06;;;8.48;83.14
62849;BME280;48941;49.516;8.286;2023-03-25T03:40:19;99645.78;;;8.49;83.12
62849;BME280;48941;49.516;8.286;2023-03-25T03:42:52;99641.41;;;8.48;83.53
62849;BME280;48941;49.516;8.286;2023-03-25T03:45:26;99649.25;;;8.50;83.60
62849;BME280;48941;49.516;8.286;2023-03-25T03:47:58;99638.41;;;8.53;82.90
62849;BME280;48941;49.516;8.286;2023-03-25T03:50:31;99641.88;;;8.53;82.78
62849;BME280;48941;49.516;8.286;2023-03-25T03:53:07;99637.41;;;8.54;82.52
62849;BME280;48941;49.516;8.286;2023-03-25T03:55:41;99635.59;;;8.54;82.10
62849;BME280;48941;49.516;8.286;2023-03-25T03:58:15;99636.59;;;8.53;81.78
62849;BME280;48941;49.516;8.286;2023-03-25T04:00:52;99642.59;;;8.55;81.51
62849;BME280;48941;49.516;8.286;2023-03-25T04:03:29;99656.00;;;8.54;81.53
62849;BME280;48941;49.516;8.286;2023-03-25T04:06:02;99652.63;;;8.52;81.81
62849;BME280;48941;49.516;8.286;2023-03-25T04:08:36;99659.75;;;8.51;81.62
62849;BME280;48941;49.516;8.286;2023-03-25T04:11:16;99658.06;;;8.50;81.70
62849;BME280;48941;49.516;8.286;2023-03-25T04:13:46;99662.41;;;8.51;81.99
62849;BME280;48941;49.516;8.286;2023-03-25T04:16:16;99671.09;;;8.53;80.96
62849;BME280;48941;49.516;8.286;2023-03-25T04:18:43;99674.47;;;8.55;81.41
62849;BME280;48941;49.516;8.286;2023-03-25T04:21:13;99688.31;;;8.59;81.68
62849;BME280;48941;49.516;8.286;2023-03-25T04:23:43;99688.16;;;8.61;82.00
62849;BME280;48941;49.516;8.286;2023-03-25T04:26:13;99693.47;;;8.61;81.32
62849;BME280;48941;49.516;8.286;2023-03-25T04:28:41;99702.03;;;8.64;81.28
62849;BME280;48941;49.516;8.286;2023-03-25T04:31:12;99693.00;;;8.67;81.66
62849;BME280;48941;49.516;8.286;2023-03-25T04:33:42;99702.25;;;8.72;81.96
62849;BME280;48941;49.516;8.286;2023-03-25T04:36:14;99685.47;;;8.72;81.66
62849;BME280;48941;49.516;8.286;2023-03-25T04:38:43;99693.03;;;8.76;81.22
62849;BME280;48941;49.516;8.286;2023-03-25T04:41:13;99692.69;;;8.81;80.54
62849;BME280;48941;49.516;8.286;2023-03-25T04:43:41;99681.19;;;8.81;80.71
62849;BME280;48941;49.516;8.286;2023-03-25T04:46:12;99681.19;;;8.81;80.93
62849;BME280;48941;49.516;8.286;2023-03-25T04:48:41;99688.91;;;8.84;80.52
62849;BME280;48941;49.516;8.286;2023-03-25T04:51:10;99695.94;;;8.85;80.50
62849;BME280;48941;49.516;8.286;2023-03-25T04:53:38;99691.34;;;8.87;80.50
62849;BME280;48941;49.516;8.286;2023-03-25T04:56:11;99699.84;;;8.90;80.57
62849;BME280;48941;49.516;8.286;2023-03-25T04:58:43;99696.50;;;8.88;80.41
62849;BME280;48941;49.516;8.286;2023-03-25T05:01:19;99704.22;;;8.91;80.83
62849;BME280;48941;49.516;8.286;2023-03-25T05:03:48;99682.38;;;8.88;80.69
62849;BME280;48941;49.516;8.286;2023-03-25T05:06:16;99689.63;;;8.86;80.85
62849;BME280;48941;49.516;8.286;2023-03-25T05:08:44;99702.06;;;8.85;81.07
62849;BME280;48941;49.516;8.286;2023-03-25T05:11:12;99686.38;;;8.82;81.66
62849;BME280;48941;49.516;8.286;2023-03-25T05:13:40;99693.50;;;8.82;82.05
62849;BME280;48941;49.516;8.286;2023-03-25T05:16:09;99699.78;;;8.81;81.48
62849;BME280;48941;49.516;8.286;2023-03-25T05:18:37;99698.00;;;8.81;81.66
62849;BME280;48941;49.516;8.286;2023-03-25T05:21:05;99692.56;;;8.83;82.01
62849;BME280;48941;49.516;8.286;2023-03-25T05:23:33;99709.22;;;8.85;81.33
62849;BME280;48941;49.516;8.286;2023-03-25T05:26:00;99697.34;;;8.89;80.60
62849;BME280;48941;49.516;8.286;2023-03-25T05:28:29;99706.28;;;8.88;80.90
62849;BME280;48941;49.516;8.286;2023-03-25T05:30:56;99699.16;;;8.88;80.68
62849;BME280;48941;49.516;8.286;2023-03-25T05:33:26;99692.16;;;8.87;80.10
62849;BME280;48941;49.516;8.286;2023-03-25T05:35:53;99704.94;;;8.93;79.10
62849;BME280;48941;49.516;8.286;2023-03-25T05:38:22;99698.91;;;8.91;79.08
62849;BME280;48941;49.516;8.286;2023-03-25T05:40:50;99707.97;;;8.89;79.45
62849;BME280;48941;49.516;8.286;2023-03-25T05:43:18;99701.28;;;8.94;78.56
62849;BME280;48941;49.516;8.286;2023-03-25T05:45:48;99709.25;;;8.94;78.44
62849;BME280;48941;49.516;8.286;2023-03-25T05:48:16;99713.28;;;8.89;78.65
62849;BME280;48941;49.516;8.286;2023-03-25T05:50:46;99708.22;;;8.86;78.63
62849;BME280;48941;49.516;8.286;2023-03-25T05:53:14;99712.41;;;8.88;78.83
62849;BME280;48941;49.516;8.286;2023-03-25T05:55:42;99729.22;;;8.89;79.08
62849;BME280;48941;49.516;8.286;2023-03-25T05:58:09;99726.56;;;8.89;79.89
62849;BME280;48941;49.516;8.286;2023-03-25T06:00:37;99740.03;;;8.97;78.40
62849;BME280;48941;49.516;8.286;2023-03-25T06:03:06;99737.50;;;8.95;78.76
62849;BME280;48941;49.516;8.286;2023-03-25T06:05:34;99742.31;;;9.02;78.16
62849;BME280;48941;49.516;8.286;2023-03-25T06:08:06;99746.66;;;9.03;78.35
62849;BME280;48941;49.516;8.286;2023-03-25T06:10:34;99730.72;;;9.03;78.12
62849;BME280;48941;49.516;8.286;2023-03-25T06:13:02;99740.63;;;9.01;78.83
62849;BME280;48941;49.516;8.286;2023-03-25T06:15:30;99741.84;;;8.96;78.22
62849;BME280;48941;49.516;8.286;2023-03-25T06:18:04;99744.72;;;9.05;76.68
62849;BME280;48941;49.516;8.286;2023-03-25T06:20:32;99758.13;;;9.03;77.44
62849;BME280;48941;49.516;8.286;2023-03-25T06:23:00;99759.88;;;9.14;77.11
62849;BME280;48941;49.516;8.286;2023-03-25T06:25:29;99757.31;;;9.12;77.02
62849;BME280;48941;49.516;8.286;2023-03-25T06:27:57;99760.84;;;9.13;77.51
62849;BME280;48941;49.516;8.286;2023-03-25T06:30:28;99766.28;;;9.11;78.07
62849;BME280;48941;49.516;8.286;2023-03-25T06:32:56;99768.66;;;9.14;77.04
62849;BME280;48941;49.516;8.286;2023-03-25T06:35:28;99764.22;;;9.15;77.07
62849;BME280;48941;49.516;8.286;2023-03-25T06:37:56;99759.94;;;9.24;75.66
62849;BME280;48941;49.516;8.286;2023-03-25T06:40:23;99751.84;;;9.25;76.37
62849;BME280;48941;49.516;8.286;2023-03-25T06:42:53;99752.03;;;9.33;75.02
62849;BME280;48941;49.516;8.286;2023-03-25T06:45:20;99741.91;;;9.27;74.86
62849;BME280;48941;49.516;8.286;2023-03-25T06:47:48;99750.59;;;9.29;76.00
62849;BME280;48941;49.516;8.286;2023-03-25T06:50:16;99736.31;;;9.30;75.85
62849;BME280;48941;49.516;8.286;2023-03-25T06:52:44;99733.53;;;9.32;75.58
62849;BME280;48941;49.516;8.286;2023-03-25T06:55:12;99741.16;;;9.46;74.60
62849;BME280;48941;49.516;8.286;2023-03-25T06:57:39;99738.38;;;9.48;74.54
62849;BME280;48941;49.516;8.286;2023-03-25T07:00:11;99732.81;;;9.51;75.15
62849;BME280;48941;49.516;8.286;2023-03-25T07:02:38;99748.25;;;9.57;74.75
62849;BME280;48941;49.516;8.286;2023-03-25T07:05:07;99719.44;;;9.62;74.22
62849;BME280;48941;49.516;8.286;2023-03-25T07:07:35;99728.31;;;9.82;72.92
62849;BME280;48941;49.516;8.286;2023-03-25T07:10:03;99726.81;;;9.89;72.97
62849;BME280;48941;49.516;8.286;2023-03-25T07:12:32;99724.06;;;10.01;72.29
62849;BME280;48941;49.516;8.286;2023-03-25T07:15:01;99730.09;;;10.12;72.46
62849;BME280;48941;49.516;8.286;2023-03-25T07:17:30;99716.09;;;10.10;71.82
62849;BME280;48941;49.516;8.286;2023-03-25T07:19:58;99713.31;;;10.22;72.30
62849;BME280;48941;49.516;8.286;2023-03-25T07:22:26;99700.75;;;10.33;71.77
62849;BME280;48941;49.516;8.286;2023-03-25T07:24:54;99704.56;;;10.41;70.27
62849;BME280;48941;49.516;8.286;2023-03-25T07:27:24;99701.47;;;10.45;70.19
62849;BME280;48941;49.516;8.286;2023-03-25T07:29:51;99704.41;;;10.52;69.65
62849;BME280;48941;49.516;8.286;2023-03-25T07:32:19;99704.41;;;10.52;69.72
62849;BME280;48941;49.516;8.286;2023-03-25T07:34:48;99696.72;;;10.49;69.96
62849;BME280;48941;49.516;8.286;2023-03-25T07:37:16;99699.09;;;10.62;70.18
62849;BME280;48941;49.516;8.286;2023-03-25T07:39:44;99701.06;;;10.69;70.04
62849;BME280;48941;49.516;8.286;2023-03-25T07:42:12;99703.16;;;10.66;69.13
62849;BME280;48941;49.516;8.286;2023-03-25T07:44:39;99700.09;;;10.70;69.53
62849;BME280;48941;49.516;8.286;2023-03-25T07:47:07;99710.03;;;10.68;69.44
62849;BME280;48941;49.516;8.286;2023-03-25T07:49:35;99703.03;;;10.67;69.42
62849;BME280;48941;49.516;8.286;2023-03-25T07:52:07;99713.94;;;10.64;69.51
62849;BME280;48941;49.516;8.286;2023-03-25T07:54:35;99718.56;;;10.62;70.24
62849;BME280;48941;49.516;8.286;2023-03-25T07:57:03;99707.09;;;10.71;68.60
62849;BME280;48941;49.516;8.286;2023-03-25T07:59:32;99718.19;;;10.67;69.38
62849;BME280;48941;49.516;8.286;2023-03-25T08:01:59;99708.63;;;10.64;69.26
62849;BME280;48941;49.516;8.286;2023-03-25T08:04:28;99702.91;;;10.59;68.75
62849;BME280;48941;49.516;8.286;2023-03-25T08:06:56;99703.84;;;10.58;68.61
62849;BME280;48941;49.516;8.286;2023-03-25T08:09:26;99705.81;;;10.66;68.44
62849;BME280;48941;49.516;8.286;2023-03-25T08:11:54;99703.72;;;10.60;68.83
62849;BME280;48941;49.516;8.286;2023-03-25T08:14:22;99703.84;;;10.58;68.59
62849;BME280;48941;49.516;8.286;2023-03-25T08:16:50;99703.31;;;10.54;68.87
62849;BME280;48941;49.516;8.286;2023-03-25T08:19:18;99710.75;;;10.61;69.30
62849;BME280;48941;49.516;8.286;2023-03-25T08:21:46;99696.44;;;10.62;68.47
62849;BME280;48941;49.516;8.286;2023-03-25T08:24:14;99705.41;;;10.61;67.57
62849;BME280;48941;49.516;8.286;2023-03-25T08:26:44;99716.22;;;10.59;69.25
62849;BME280;48941;49.516;8.286;2023-03-25T08:29:12;99704.72;;;10.59;69.94
62849;BME280;48941;49.516;8.286;2023-03-25T08:31:43;99703.59;;;10.61;70.19
62849;BME280;48941;49.516;8.286;2023-03-25T08:34:13;99701.06;;;10.60;70.93
62849;BME280;48941;49.516;8.286;2023-03-25T08:36:41;99706.25;;;10.61;70.15
62849;BME280;48941;49.516;8.286;2023-03-25T08:39:08;99700.63;;;10.64;70.62
62849;BME280;48941;49.516;8.286;2023-03-25T08:41:37;99711.59;;;10.71;69.23
62849;BME280;48941;49.516;8.286;2023-03-25T08:44:07;99706.66;;;10.76;69.39
62849;BME280;48941;49.516;8.286;2023-03-25T08:46:35;99702.59;;;10.82;68.63
62849;BME280;48941;49.516;8.286;2023-03-25T08:49:40;99696.56;;;10.89;67.82
62849;BME280;48941;49.516;8.286;2023-03-25T08:52:08;99710.44;;;10.93;66.62
62849;BME280;48941;49.516;8.286;2023-03-25T08:54:36;99708.75;;;10.92;67.35
62849;BME280;48941;49.516;8.286;2023-03-25T08:57:04;99711.97;;;10.95;67.22
62849;BME280;48941;49.516;8.286;2023-03-25T08:59:33;99699.91;;;11.01;67.07
62849;BME280;48941;49.516;8.286;2023-03-25T09:02:01;99705.22;;;11.11;66.47
62849;BME280;48941;49.516;8.286;2023-03-25T09:04:32;99711.53;;;11.10;65.48
62849;BME280;48941;49.516;8.286;2023-03-25T09:07:00;99700.47;;;11.05;65.96
62849;BME280;48941;49.516;8.286;2023-03-25T09:09:37;99702.00;;;11.07;65.49
62849;BME280;48941;49.516;8.286;2023-03-25T09:12:06;99705.25;;;11.01;65.11
62849;BME280;48941;49.516;8.286;2023-03-25T09:14:36;99700.06;;;11.00;64.17
62849;BME280;48941;49.516;8.286;2023-03-25T09:17:04;99713.81;;;10.95;65.89
62849;BME280;48941;49.516;8.286;2023-03-25T09:19:33;99696.56;;;10.89;66.26
62849;BME280;48941;49.516;8.286;2023-03-25T09:22:03;99700.75;;;10.92;66.40
62849;BME280;48941;49.516;8.286;2023-03-25T09:24:32;99690.22;;;11.00;66.09
62849;BME280;48941;49.516;8.286;2023-03-25T09:27:01;99689.13;;;11.03;65.34
62849;BME280;48941;49.516;8.286;2023-03-25T09:29:29;99688.44;;;11.01;64.38
62849;BME280;48941;49.516;8.286;2023-03-25T09:31:59;99692.16;;;11.18;63.96
62849;BME280;48941;49.516;8.286;2023-03-25T09:34:27;99694.97;;;11.16;64.61
62849;BME280;48941;49.516;8.286;2023-03-25T09:36:55;99695.25;;;11.23;63.46
62849;BME280;48941;49.516;8.286;2023-03-25T09:39:22;99684.00;;;11.29;62.86
62849;BME280;48941;49.516;8.286;2023-03-25T09:42:01;99681.22;;;11.30;62.82
62849;BME280;48941;49.516;8.286;2023-03-25T09:44:35;99694.78;;;11.37;63.35
62849;BME280;48941;49.516;8.286;2023-03-25T09:47:08;99692.41;;;11.71;61.51
62849;BME280;48941;49.516;8.286;2023-03-25T09:49:42;99685.72;;;11.95;62.34
62849;BME280;48941;49.516;8.286;2023-03-25T09:52:14;99694.22;;;12.08;61.22
62849;BME280;48941;49.516;8.286;2023-03-25T09:54:47;99702.25;;;12.08;60.27
62849;BME280;48941;49.516;8.286;2023-03-25T09:57:19;99696.75;;;12.28;60.90
62849;BME280;48941;49.516;8.286;2023-03-25T09:59:50;99692.03;;;12.40;60.80
62849;BME280;48941;49.516;8.286;2023-03-25T10:02:28;99686.41;;;12.43;60.35
62849;BME280;48941;49.516;8.286;2023-03-25T10:05:13;99692.44;;;12.45;60.67
62849;BME280;48941;49.516;8.286;2023-03-25T10:07:54;99700.44;;;12.45;62.20
62849;BME280;48941;49.516;8.286;2023-03-25T10:10:28;99690.97;;;12.68;62.07
62849;BME280;48941;49.516;8.286;2023-03-25T10:13:04;99687.00;;;12.90;59.68
62849;BME280;48941;49.516;8.286;2023-03-25T10:15:39;99689.19;;;13.21;58.79
62849;BME280;48941;49.516;8.286;2023-03-25T10:18:37;99690.19;;;13.38;58.65
62849;BME280;48941;49.516;8.286;2023-03-25T10:21:14;99682.03;;;13.74;57.68
62849;BME280;48941;49.516;8.286;2023-03-25T10:23:49;99686.50;;;14.08;53.85
62849;BME280;48941;49.516;8.286;2023-03-25T10:26:24;99688.50;;;14.14;55.18
62849;BME280;48941;49.516;8.286;2023-03-25T10:28:59;99685.53;;;14.33;53.93
62849;BME280;48941;49.516;8.286;2023-03-25T10:31:33;99692.28;;;14.46;53.41
62849;BME280;48941;49.516;8.286;2023-03-25T10:34:04;99681.50;;;14.38;52.80
62849;BME280;48941;49.516;8.286;2023-03-25T10:36:35;99694.03;;;14.21;51.99
62849;BME280;48941;49.516;8.286;2023-03-25T10:39:10;99705.69;;;14.03;53.42
62849;BME280;48941;49.516;8.286;2023-03-25T10:41:40;99715.72;;;13.59;55.77
62849;BME280;48941;49.516;8.286;2023-03-25T10:44:09;99738.97;;;13.32;60.60
62849;BME280;48941;49.516;8.286;2023-03-25T10:46:40;99746.00;;;12.79;66.29
62849;BME280;48941;49.516;8.286;2023-03-25T10:49:18;99755.72;;;12.17;67.72
62849;BME280;48941;49.516;8.286;2023-03-25T10:51:49;99753.22;;;11.58;71.10
62849;BME280;48941;49.516;8.286;2023-03-25T10:54:20;99758.75;;;11.47;73.42
62849;BME280;48941;49.516;8.286;2023-03-25T10:56:50;99766.78;;;11.27;75.55
62849;BME280;48941;49.516;8.286;2023-03-25T10:59:24;99771.28;;;10.88;75.75
62849;BME280;48941;49.516;8.286;2023-03-25T11:01:54;99763.84;;;10.62;77.21
62849;BME280;48941;49.516;8.286;2023-03-25T11:04:30;99756.56;;;10.54;78.03
62849;BME280;48941;49.516;8.286;2023-03-25T11:07:00;99755.16;;;10.50;78.78
62849;BME280;48941;49.516;8.286;2023-03-25T11:09:31;99762.03;;;10.53;79.66
62849;BME280;48941;49.516;8.286;2023-03-25T11:12:05;99760.50;;;10.89;79.50
62849;BME280;48941;49.516;8.286;2023-03-25T11:14:36;99767.47;;;11.39;75.49
62849;BME280;48941;49.516;8.286;2023-03-25T11:17:09;99771.47;;;11.72;75.26
62849;BME280;48941;49.516;8.286;2023-03-25T11:19:40;99763.78;;;12.07;73.61
62849;BME280;48941;49.516;8.286;2023-03-25T11:22:15;99769.34;;;12.41;74.06
62849;BME280;48941;49.516;8.286;2023-03-25T11:24:47;99774.94;;;12.66;69.08
62849;BME280;48941;49.516;8.286;2023-03-25T11:27:17;99774.94;;;12.84;67.19
62849;BME280;48941;49.516;8.286;2023-03-25T11:29:51;99785.19;;;12.70;63.56
62849;BME280;48941;49.516;8.286;2023-03-25T11:32:23;99783.88;;;12.57;64.11
62849;BME280;48941;49.516;8.286;2023-03-25T11:35:00;99778.94;;;12.34;63.18
62849;BME280;48941;49.516;8.286;2023-03-25T11:37:29;99774.81;;;12.12;61.76
62849;BME280;48941;49.516;8.286;2023-03-25T11:40:03;99775.78;;;12.21;62.81
62849;BME280;48941;49.516;8.286;2023-03-25T11:42:36;99768.81;;;12.55;64.76
62849;BME280;48941;49.516;8.286;2023-03-25T11:45:12;99761.28;;;12.87;62.15
62849;BME280;48941;49.516;8.286;2023-03-25T11:47:45;99753.59;;;13.28;61.86
62849;BME280;48941;49.516;8.286;2023-03-25T11:50:20;99765.44;;;13.69;61.55
62849;BME280;48941;49.516;8.286;2023-03-25T11:52:52;99747.81;;;13.93;56.21
62849;BME280;48941;49.516;8.286;2023-03-25T11:55:22;99750.56;;;14.09;56.53
62849;BME280;48941;49.516;8.286;2023-03-25T11:57:52;99753.13;;;14.19;56.09
62849;BME280;48941;49.516;8.286;2023-03-25T12:00:30;99751.34;;;14.28;54.64
62849;BME280;48941;49.516;8.286;2023-03-25T12:03:00;99749.09;;;14.15;54.81
62849;BME280;48941;49.516;8.286;2023-03-25T12:05:29;99739.84;;;14.09;54.42
62849;BME280;48941;49.516;8.286;2023-03-25T12:08:10;99734.91;;;14.23;54.72
62849;BME280;48941;49.516;8.286;2023-03-25T12:10:52;99732.59;;;14.36;55.17
62849;BME280;48941;49.516;8.286;2023-03-25T12:13:30;99745.66;;;14.39;55.85
62849;BME280;48941;49.516;8.286;2023-03-25T12:16:10;99735.88;;;14.22;53.56
62849;BME280;48941;49.516;8.286;2023-03-25T12:18:59;99739.44;;;13.88;56.18
62849;BME280;48941;49.516;8.286;2023-03-25T12:21:40;99726.81;;;14.06;55.25
62849;BME280;48941;49.516;8.286;2023-03-25T12:24:22;99728.25;;;14.43;54.01
62849;BME280;48941;49.516;8.286;2023-03-25T12:27:07;99710.56;;;14.67;54.06
62849;BME280;48941;49.516;8.286;2023-03-25T12:29:41;99707.38;;;14.80;53.20
62849;BME280;48941;49.516;8.286;2023-03-25T12:32:18;99704.53;;;14.98;52.77
62849;BME280;48941;49.516;8.286;2023-03-25T12:34:55;99705.72;;;15.20;52.69
62849;BME280;48941;49.516;8.286;2023-03-25T12:37:33;99702.00;;;15.29;48.09
62849;BME280;48941;49.516;8.286;2023-03-25T12:40:27;99704.66;;;15.37;47.92
62849;BME280;48941;49.516;8.286;2023-03-25T12:43:05;99702.50;;;15.32;46.52
62849;BME280;48941;49.516;8.286;2023-03-25T12:45:42;99703.03;;;15.11;49.27
62849;BME280;48941;49.516;8.286;2023-03-25T12:48:22;99704.88;;;15.03;48.91
62849;BME280;48941;49.516;8.286;2023-03-25T12:50:59;99696.31;;;15.07;48.22
62849;BME280;48941;49.516;8.286;2023-03-25T12:53:41;99687.41;;;15.40;48.67
62849;BME280;48941;49.516;8.286;2023-03-25T12:56:22;99692.41;;;15.43;48.31
62849;BME280;48941;49.516;8.286;2023-03-25T12:59:14;99683.81;;;15.64;47.63
62849;BME280;48941;49.516;8.286;2023-03-25T13:01:53;99678.25;;;15.82;49.05
62849;BME280;48941;49.516;8.286;2023-03-25T13:04:33;99676.78;;;16.02;46.44
62849;BME280;48941;49.516;8.286;2023-03-25T13:07:09;99675.97;;;16.02;46.70
62849;BME280;48941;49.516;8.286;2023-03-25T13:09:49;99665.50;;;16.07;47.02
62849;BME280;48941;49.516;8.286;2023-03-25T13:12:27;99660.16;;;16.07;45.98
62849;BME280;48941;49.516;8.286;2023-03-25T13:15:02;99660.53;;;16.27;46.54
62849;BME280;48941;49.516;8.286;2023-03-25T13:17:34;99650.59;;;16.27;45.17
62849;BME280;48941;49.516;8.286;2023-03-25T13:20:05;99661.84;;;16.31;45.35
62849;BME280;48941;49.516;8.286;2023-03-25T13:22:37;99657.94;;;16.42;42.94
62849;BME280;48941;49.516;8.286;2023-03-25T13:25:18;99645.31;;;16.42;42.99
62849;BME280;48941;49.516;8.286;2023-03-25T13:27:48;99649.88;;;16.42;42.49
62849;BME280;48941;49.516;8.286;2023-03-25T13:30:26;99657.16;;;16.56;42.80
62849;BME280;48941;49.516;8.286;2023-03-25T13:33:02;99669.03;;;16.62;42.10